Asian Legend — V7SP3 — position and weather

sailwx.info

Track history (hours):
 
Tides and Currents Weather Stations Pressure Air Temp Water Temp Dewpoint Dewpoint Depression Visibility Wind Speed Wind Dir Waves Ship Positions

Asian Legend

Last reported at 2018-Feb-07 21:23 UTC. Time now 2018-Feb-22 16:55 UTC.
Position N 06°01' E 001°13'.
Warning: this ship's position is 14 days out of date.

Length 200 m; draft 7.9 m.

Type: Cargo ship. MMSI: 538003697.

Date/timePositionNaut miles runAvg speedWind from/ knotsBaromVisibWave heightAir tempDewpointWater temp
2018-Feb-07 21:23N 06°01' E 001°13'3 0.1
2018-Feb-06 08:32N 05°58' E 001°14'0 0.2
2018-Feb-06 08:16N 05°58' E 001°14'2 0.2
2018-Feb-06 01:03N 05°59' E 001°16'0 0.0
2018-Feb-06 00:54N 05°59' E 001°16'1 0.4
2018-Feb-05 21:55N 05°58' E 001°15'3 6.4
2018-Feb-05 21:30N 05°56' E 001°14'3011.6
2018-Feb-05 18:56N 05°29' E 000°60'613.3
2018-Feb-05 18:30N 05°26' E 000°55'2013.1
2018-Feb-05 17:00N 05°17' E 000°38'2713.2
2018-Feb-05 15:00N 05°04' E 000°14'713.3
2018-Feb-05 14:28N 05°00' E 000°08'713.5
2018-Feb-05 13:58N 04°57' E 000°02'713.6
2018-Feb-05 13:28N 04°53' W 000°03'613.6
2018-Feb-05 12:59N 04°50' W 000°09'  
Track history (hours):
 
Tides and Currents Weather Stations Pressure Air Temp Water Temp Dewpoint Dewpoint Depression Visibility Wind Speed Wind Dir Waves Ship Positions

Asian Legend

Last reported at 2018-Feb-07 21:23 UTC. Time now 2018-Feb-22 16:55 UTC.
Position N 06°01' E 001°13'.
Warning: this ship's position is 14 days out of date.

Length 200 m; draft 7.9 m.

Type: Cargo ship. MMSI: 538003697.

Date/timePositionNaut miles runAvg speedWind from/ knotsBaromVisibWave heightAir tempDewpointWater temp
2018-Feb-07 21:23N 06°01' E 001°13'3 0.1
2018-Feb-06 08:32N 05°58' E 001°14'0 0.2
2018-Feb-06 08:16N 05°58' E 001°14'2 0.2
2018-Feb-06 01:03N 05°59' E 001°16'0 0.0
2018-Feb-06 00:54N 05°59' E 001°16'1 0.4
2018-Feb-05 21:55N 05°58' E 001°15'3 6.4
2018-Feb-05 21:30N 05°56' E 001°14'3011.6
2018-Feb-05 18:56N 05°29' E 000°60'613.3
2018-Feb-05 18:30N 05°26' E 000°55'2013.1
2018-Feb-05 17:00N 05°17' E 000°38'2713.2
2018-Feb-05 15:00N 05°04' E 000°14'713.3
2018-Feb-05 14:28N 05°00' E 000°08'713.5
2018-Feb-05 13:58N 04°57' E 000°02'713.6
2018-Feb-05 13:28N 04°53' W 000°03'613.6
2018-Feb-05 12:59N 04°50' W 000°09'  

Dump ship's entire track history